Time;durP1;ratioP1;P1;durP2;ratioP2;P2;SDS_P1;SDS_P2;PMS_P1;PMS_P2;Temp;Humidity;BMP_temperature;BMP_pressure;BME280_temperature;BME280_humidity;BME280_pressure;Samples;Min_cycle;Max_cycle;Signal;HPM_P1;HPM_P2
2023/10/31 10:48:10;;;;;;;2.10;1.90;;;;;;;;;;6187178;23;20117;-68
2023/10/31 10:50:39;;;;;;;2.47;2.17;;;;;;;;;;6154863;23;20048;-68
2023/10/31 10:53:27;;;;;;;2.90;2.30;;;;;;;;;;6155028;23;20425;-68
2023/10/31 10:56:00;;;;;;;2.97;2.17;;;;;;;;;;6155503;23;20412;-68
2023/10/31 10:58:58;;;;;;;3.35;2.42;;;;;;;;;;6155147;23;20335;-71
2023/10/31 11:01:25;;;;;;;2.63;2.17;;;;;;;;;;6050070;23;20345;-68
2023/10/31 11:03:51;;;;;;;2.28;2.08;;;;;;;;;;6155041;23;20006;-69
2023/10/31 11:06:19;;;;;;;2.75;2.20;;;;;;;;;;6154917;23;20029;-71
2023/10/31 11:08:46;;;;;;;2.38;2.17;;;;;;;;;;6155042;23;20060;-71
2023/10/31 11:11:15;;;;;;;3.83;2.40;;;;;;;;;;6154871;23;20056;-68
2023/10/31 11:13:43;;;;;;;2.40;2.20;;;;;;;;;;6155052;23;20300;-69
2023/10/31 11:16:17;;;;;;;2.35;2.13;;;;;;;;;;6154978;23;20056;-70
2023/10/31 11:18:43;;;;;;;2.33;2.08;;;;;;;;;;6153466;23;20028;-68
2023/10/31 11:21:09;;;;;;;2.20;2.00;;;;;;;;;;6154453;23;20381;-70
2023/10/31 11:23:35;;;;;;;2.15;1.95;;;;;;;;;;6154357;23;20033;-68
2023/10/31 11:26:01;;;;;;;2.30;2.10;;;;;;;;;;6155011;23;20001;-68
2023/10/31 11:28:27;;;;;;;2.95;2.03;;;;;;;;;;6154989;23;20056;-67
2023/10/31 11:30:58;;;;;;;2.10;2.00;;;;;;;;;;6154850;23;20012;-68
2023/10/31 11:33:24;;;;;;;2.05;1.88;;;;;;;;;;6149412;23;20016;-69
2023/10/31 11:35:51;;;;;;;4.22;2.17;;;;;;;;;;6154702;23;20005;-71
2023/10/31 11:38:31;;;;;;;2.85;2.20;;;;;;;;;;6155732;23;20010;-69
2023/10/31 11:41:02;;;;;;;4.43;2.00;;;;;;;;;;6156925;23;20017;-69
2023/10/31 11:43:39;;;;;;;2.97;2.30;;;;;;;;;;6156994;23;19997;-68
2023/10/31 11:46:06;;;;;;;2.10;1.90;;;;;;;;;;6156777;23;20001;-70
2023/10/31 11:48:47;;;;;;;2.10;1.90;;;;;;;;;;6155911;23;20427;-69
2023/10/31 11:51:12;;;;;;;;;;;;;;;;;;6155379;23;20379;-70
2023/10/31 11:53:39;;;;;;;2.72;1.83;;;;;;;;;;6155163;23;19915;-69
2023/10/31 11:56:05;;;;;;;2.20;2.00;;;;;;;;;;6155267;23;20497;-69
2023/10/31 11:58:30;;;;;;;2.45;2.25;;;;;;;;;;6156907;23;20005;-69
2023/10/31 12:01:04;;;;;;;5.70;2.40;;;;;;;;;;6156776;23;20084;-70
2023/10/31 12:03:51;;;;;;;2.13;1.92;;;;;;;;;;6157105;23;20005;-69
2023/10/31 12:06:17;;;;;;;3.17;2.20;;;;;;;;;;6156748;23;20002;-70
2023/10/31 12:08:43;;;;;;;2.88;1.77;;;;;;;;;;6157135;23;20012;-70
2023/10/31 12:11:17;;;;;;;2.17;1.98;;;;;;;;;;6156574;23;20044;-71
2023/10/31 12:13:53;;;;;;;2.20;2.00;;;;;;;;;;6157029;23;20076;-70
2023/10/31 12:16:22;;;;;;;3.47;2.10;;;;;;;;;;6156354;23;20419;-71
2023/10/31 12:18:54;;;;;;;4.32;2.40;;;;;;;;;;6154352;23;20300;-69
2023/10/31 12:21:20;;;;;;;6.32;3.70;;;;;;;;;;6156569;23;20028;-64
2023/10/31 12:23:45;;;;;;;4.03;3.30;;;;;;;;;;6155999;23;20068;-64
2023/10/31 12:26:11;;;;;;;2.90;2.67;;;;;;;;;;6156153;23;20308;-64
2023/10/31 12:28:38;;;;;;;3.33;3.03;;;;;;;;;;6154497;23;20066;-64
2023/10/31 12:31:03;;;;;;;3.92;2.80;;;;;;;;;;6153768;23;20482;-64
2023/10/31 12:33:29;;;;;;;5.68;3.17;;;;;;;;;;6155803;23;19998;-64
2023/10/31 12:35:58;;;;;;;8.57;3.35;;;;;;;;;;6156488;23;20005;-64
2023/10/31 12:38:25;;;;;;;4.90;3.42;;;;;;;;;;6156107;23;20334;-64
2023/10/31 12:40:51;;;;;;;5.03;3.10;;;;;;;;;;6156085;23;20005;-64
2023/10/31 12:43:17;;;;;;;3.20;2.90;;;;;;;;;;6156341;23;20012;-64
2023/10/31 12:45:43;;;;;;;4.43;3.05;;;;;;;;;;6156412;23;20332;-64
2023/10/31 12:48:12;;;;;;;3.97;2.67;;;;;;;;;;6156470;23;20024;-64
2023/10/31 12:50:40;;;;;;;3.30;2.65;;;;;;;;;;6155746;23;20005;-64
2023/10/31 12:53:06;;;;;;;5.90;3.00;;;;;;;;;;6157032;23;20032;-64
2023/10/31 12:55:41;;;;;;;4.05;2.67;;;;;;;;;;6156390;23;20005;-64
2023/10/31 12:58:09;;;;;;;3.95;3.10;;;;;;;;;;6156302;23;20419;-64
2023/10/31 13:00:36;;;;;;;5.10;2.60;;;;;;;;;;6155433;23;20008;-64
2023/10/31 13:03:04;;;;;;;3.28;2.97;;;;;;;;;;6156417;23;20021;-64
2023/10/31 13:05:30;;;;;;;3.17;2.85;;;;;;;;;;6155431;23;20005;-64
2023/10/31 13:07:57;;;;;;;4.13;3.13;;;;;;;;;;6156253;23;20025;-64
2023/10/31 13:10:24;;;;;;;2.80;2.50;;;;;;;;;;6156438;23;20037;-64
2023/10/31 13:12:51;;;;;;;3.00;2.70;;;;;;;;;;6156079;23;20029;-64
2023/10/31 13:15:20;;;;;;;4.57;2.95;;;;;;;;;;6156219;23;20398;-64
2023/10/31 13:17:46;;;;;;;2.70;2.45;;;;;;;;;;6156140;23;20081;-64
2023/10/31 13:20:13;;;;;;;2.97;2.67;;;;;;;;;;6130047;23;20331;-64
2023/10/31 13:22:41;;;;;;;3.35;3.05;;;;;;;;;;6156123;23;20474;-64
2023/10/31 13:25:09;;;;;;;3.03;2.67;;;;;;;;;;6156128;23;20434;-64
2023/10/31 13:27:35;;;;;;;3.72;3.08;;;;;;;;;;6130805;23;20048;-64
2023/10/31 13:30:02;;;;;;;4.53;2.80;;;;;;;;;;6156241;23;20005;-64
2023/10/31 13:32:27;;;;;;;2.80;2.60;;;;;;;;;;6156004;23;20032;-64
2023/10/31 13:34:53;;;;;;;3.42;2.80;;;;;;;;;;6155913;23;19994;-64
2023/10/31 13:37:18;;;;;;;2.80;2.50;;;;;;;;;;6156075;23;20085;-64
2023/10/31 13:39:44;;;;;;;4.60;3.00;;;;;;;;;;6155990;23;20562;-64
2023/10/31 13:42:10;;;;;;;3.08;2.60;;;;;;;;;;6156205;23;20009;-64
2023/10/31 13:44:36;;;;;;;4.78;2.45;;;;;;;;;;6155816;23;20335;-64
2023/10/31 13:47:03;;;;;;;4.22;2.70;;;;;;;;;;6155773;23;20009;-64
2023/10/31 13:49:29;;;;;;;3.30;2.83;;;;;;;;;;6155513;23;20013;-64
2023/10/31 13:51:55;;;;;;;3.00;2.70;;;;;;;;;;6155759;23;20002;-64
2023/10/31 13:54:20;;;;;;;2.97;2.40;;;;;;;;;;6156193;23;20009;-64
2023/10/31 13:56:47;;;;;;;2.70;2.50;;;;;;;;;;6155788;23;20300;-64
2023/10/31 13:59:12;;;;;;;3.85;2.60;;;;;;;;;;6155707;23;20005;-64
2023/10/31 14:01:38;;;;;;;3.65;3.03;;;;;;;;;;6155739;23;20010;-64
2023/10/31 14:04:04;;;;;;;3.65;3.00;;;;;;;;;;6155765;23;20339;-64
2023/10/31 14:06:32;;;;;;;3.95;2.65;;;;;;;;;;6155765;23;20334;-64
2023/10/31 14:08:58;;;;;;;3.42;2.67;;;;;;;;;;6155568;23;20001;-64
2023/10/31 14:11:24;;;;;;;3.28;2.60;;;;;;;;;;6155643;23;20013;-64
2023/10/31 14:13:50;;;;;;;2.55;2.35;;;;;;;;;;6155635;23;20005;-64
2023/10/31 14:16:16;;;;;;;3.20;2.60;;;;;;;;;;6155447;23;20009;-64
2023/10/31 14:18:42;;;;;;;2.60;2.40;;;;;;;;;;6155893;23;20048;-64
2023/10/31 14:21:08;;;;;;;3.22;2.72;;;;;;;;;;6155786;23;20323;-64
2023/10/31 14:23:34;;;;;;;3.25;2.72;;;;;;;;;;6155354;23;20060;-64
2023/10/31 14:26:00;;;;;;;5.13;2.65;;;;;;;;;;6155021;23;20419;-64
2023/10/31 14:28:25;;;;;;;4.75;2.40;;;;;;;;;;6153599;23;20033;-64
2023/10/31 14:30:54;;;;;;;3.15;2.50;;;;;;;;;;6152903;23;20006;-66
2023/10/31 14:33:20;;;;;;;2.58;2.35;;;;;;;;;;6154685;23;20445;-65
2023/10/31 14:35:46;;;;;;;2.97;2.25;;;;;;;;;;6155390;23;19997;-64
2023/10/31 14:38:11;;;;;;;2.63;2.42;;;;;;;;;;6155557;23;20422;-64
2023/10/31 14:40:37;;;;;;;2.67;2.30;;;;;;;;;;6153962;23;19997;-64
2023/10/31 14:43:03;;;;;;;2.92;2.50;;;;;;;;;;6128854;23;20029;-64
2023/10/31 14:45:28;;;;;;;3.35;2.38;;;;;;;;;;6155297;23;20025;-64
2023/10/31 14:47:54;;;;;;;3.50;2.47;;;;;;;;;;6128959;23;20002;-65
2023/10/31 14:50:20;;;;;;;3.60;2.40;;;;;;;;;;6155247;23;20482;-64
2023/10/31 14:52:47;;;;;;;2.88;2.55;;;;;;;;;;6155540;23;20036;-64
2023/10/31 14:55:13;;;;;;;3.92;2.60;;;;;;;;;;6155516;23;20137;-64
2023/10/31 14:57:38;;;;;;;3.10;2.45;;;;;;;;;;6155332;23;20130;-64
2023/10/31 15:00:07;;;;;;;2.60;2.28;;;;;;;;;;6155129;23;20037;-64
2023/10/31 15:02:34;;;;;;;3.22;2.50;;;;;;;;;;6155808;23;20064;-64
2023/10/31 15:05:00;;;;;;;2.85;2.42;;;;;;;;;;6155237;23;20051;-64
2023/10/31 15:07:25;;;;;;;3.35;2.70;;;;;;;;;;6155049;23;20040;-64
2023/10/31 15:09:51;;;;;;;3.70;2.30;;;;;;;;;;6154967;23;20001;-64
2023/10/31 15:12:17;;;;;;;2.80;2.47;;;;;;;;;;6154988;23;20433;-64
2023/10/31 15:14:43;;;;;;;2.63;2.33;;;;;;;;;;6155047;23;20005;-64
2023/10/31 15:17:08;;;;;;;3.47;2.40;;;;;;;;;;6155433;23;20001;-64
2023/10/31 15:19:34;;;;;;;3.70;2.60;;;;;;;;;;6155027;23;20342;-64
2023/10/31 15:21:59;;;;;;;3.40;2.50;;;;;;;;;;6154942;23;20001;-63
2023/10/31 15:24:25;;;;;;;2.58;2.30;;;;;;;;;;6155377;23;20005;-63
2023/10/31 15:26:51;;;;;;;2.83;2.25;;;;;;;;;;6155009;23;20001;-63
2023/10/31 15:29:16;;;;;;;2.90;2.60;;;;;;;;;;6154891;23;20002;-63
2023/10/31 15:31:47;;;;;;;4.72;2.67;;;;;;;;;;6154889;23;20048;-63
2023/10/31 15:34:12;;;;;;;2.65;2.22;;;;;;;;;;6154869;23;20427;-63
2023/10/31 15:36:38;;;;;;;2.78;2.47;;;;;;;;;;6155071;23;20009;-63
2023/10/31 15:39:04;;;;;;;2.83;2.63;;;;;;;;;;6155375;23;20362;-63
2023/10/31 15:41:29;;;;;;;3.45;2.38;;;;;;;;;;6155166;23;20323;-63
2023/10/31 15:43:55;;;;;;;3.17;2.42;;;;;;;;;;6154932;23;20006;-63
2023/10/31 15:46:21;;;;;;;2.75;2.30;;;;;;;;;;6155272;23;20006;-64
2023/10/31 15:48:46;;;;;;;2.42;2.22;;;;;;;;;;6154717;23;20014;-64
2023/10/31 15:51:12;;;;;;;3.35;2.80;;;;;;;;;;6155130;23;20375;-64
2023/10/31 15:53:37;;;;;;;3.75;2.50;;;;;;;;;;6155224;23;20045;-64
2023/10/31 15:56:08;;;;;;;2.70;2.50;;;;;;;;;;6155259;23;20085;-64
2023/10/31 15:58:34;;;;;;;2.72;2.40;;;;;;;;;;6128699;23;20006;-64
2023/10/31 16:00:59;;;;;;;3.28;2.55;;;;;;;;;;6154860;23;20001;-64
2023/10/31 16:03:25;;;;;;;2.60;2.38;;;;;;;;;;6154699;23;20037;-64
2023/10/31 16:05:50;;;;;;;2.72;2.17;;;;;;;;;;6155124;23;20009;-64
2023/10/31 16:08:16;;;;;;;2.30;2.10;;;;;;;;;;6154854;23;20007;-64
2023/10/31 16:10:41;;;;;;;2.83;2.53;;;;;;;;;;6154217;23;20002;-64
2023/10/31 16:13:07;;;;;;;2.80;2.47;;;;;;;;;;6154650;23;20013;-66
2023/10/31 16:15:32;;;;;;;2.88;2.50;;;;;;;;;;6154726;23;20005;-64
2023/10/31 16:18:00;;;;;;;3.03;2.33;;;;;;;;;;6154882;23;20415;-67
2023/10/31 16:20:26;;;;;;;5.10;2.42;;;;;;;;;;6154450;23;20009;-64
2023/10/31 16:22:52;;;;;;;2.72;1.92;;;;;;;;;;6154521;23;20009;-64
2023/10/31 16:25:18;;;;;;;2.40;2.20;;;;;;;;;;6155905;23;19998;-63
2023/10/31 16:27:43;;;;;;;2.55;2.35;;;;;;;;;;6156467;23;20009;-64
2023/10/31 16:30:10;;;;;;;4.22;2.47;;;;;;;;;;6156393;23;20006;-64
2023/10/31 16:32:36;;;;;;;2.67;2.20;;;;;;;;;;6156221;23;20012;-64
2023/10/31 16:35:01;;;;;;;2.47;2.28;;;;;;;;;;6156304;23;20077;-64
2023/10/31 16:37:27;;;;;;;2.75;2.45;;;;;;;;;;6155711;23;20029;-64
2023/10/31 16:39:53;;;;;;;2.80;2.40;;;;;;;;;;6129272;23;20462;-64
2023/10/31 16:42:20;;;;;;;2.42;2.22;;;;;;;;;;6155522;23;20016;-64
2023/10/31 16:44:45;;;;;;;2.70;2.50;;;;;;;;;;6155454;23;19997;-64
2023/10/31 16:47:11;;;;;;;2.47;2.22;;;;;;;;;;6156208;23;20055;-63
2023/10/31 16:49:37;;;;;;;3.30;2.33;;;;;;;;;;6156016;23;20017;-63
2023/10/31 16:52:03;;;;;;;2.28;2.08;;;;;;;;;;6156311;23;20005;-64
2023/10/31 16:54:29;;;;;;;3.00;2.53;;;;;;;;;;6155853;23;20006;-67
2023/10/31 16:56:54;;;;;;;2.50;2.20;;;;;;;;;;6155998;23;20023;-64
2023/10/31 16:59:20;;;;;;;3.10;2.40;;;;;;;;;;6155626;23;20060;-64
2023/10/31 17:01:45;;;;;;;3.22;2.60;;;;;;;;;;6156203;23;20006;-63
2023/10/31 17:04:11;;;;;;;2.90;2.60;;;;;;;;;;6156371;23;20005;-64
2023/10/31 17:06:37;;;;;;;3.22;2.45;;;;;;;;;;6155821;23;20009;-63
2023/10/31 17:09:02;;;;;;;3.22;2.45;;;;;;;;;;6156225;23;20005;-63
2023/10/31 17:11:28;;;;;;;16.00;2.78;;;;;;;;;;6156080;23;20012;-64
2023/10/31 17:13:53;;;;;;;2.92;2.47;;;;;;;;;;6155972;23;20415;-67
2023/10/31 17:16:20;;;;;;;2.95;2.58;;;;;;;;;;6156114;23;20006;-65
2023/10/31 17:18:45;;;;;;;2.60;2.40;;;;;;;;;;6156049;23;20009;-63
2023/10/31 17:21:11;;;;;;;2.70;2.50;;;;;;;;;;6155749;23;20083;-63
2023/10/31 17:23:36;;;;;;;4.07;2.30;;;;;;;;;;6156212;23;20002;-63
2023/10/31 17:26:04;;;;;;;6.20;2.30;;;;;;;;;;6156277;23;20358;-63
2023/10/31 17:28:31;;;;;;;3.22;2.20;;;;;;;;;;6156023;23;20033;-63
2023/10/31 17:30:57;;;;;;;5.03;2.30;;;;;;;;;;6155518;23;20439;-63
2023/10/31 17:33:27;;;;;;;2.63;2.20;;;;;;;;;;6155946;23;20025;-68
2023/10/31 17:35:53;;;;;;;5.32;2.80;;;;;;;;;;6155746;23;20300;-66
2023/10/31 17:38:22;;;;;;;11.05;3.50;;;;;;;;;;6155747;23;20008;-69
2023/10/31 17:40:49;;;;;;;9.45;4.07;;;;;;;;;;6155730;23;20011;-65
2023/10/31 17:43:14;;;;;;;8.68;3.67;;;;;;;;;;6155550;23;20454;-68
2023/10/31 17:45:40;;;;;;;12.38;5.07;;;;;;;;;;6155468;23;20002;-69
2023/10/31 17:48:05;;;;;;;16.40;5.50;;;;;;;;;;6155499;23;20008;-68
2023/10/31 17:50:32;;;;;;;5.60;2.72;;;;;;;;;;6129570;23;20013;-69
2023/10/31 17:52:58;;;;;;;10.90;2.53;;;;;;;;;;6155863;23;20005;-70
2023/10/31 17:55:24;;;;;;;5.25;1.92;;;;;;;;;;6155845;23;20075;-69
2023/10/31 17:57:49;;;;;;;7.25;2.08;;;;;;;;;;6155662;23;20416;-68
2023/10/31 18:00:18;;;;;;;4.68;1.80;;;;;;;;;;6155541;23;20072;-69
2023/10/31 18:02:46;;;;;;;7.35;2.67;;;;;;;;;;6155482;23;20010;-69
2023/10/31 18:05:11;;;;;;;8.43;2.50;;;;;;;;;;6155413;23;20015;-68
2023/10/31 18:07:38;;;;;;;7.55;2.42;;;;;;;;;;6155946;23;20033;-67
2023/10/31 18:10:04;;;;;;;3.85;1.70;;;;;;;;;;6155525;23;20013;-66
2023/10/31 18:12:30;;;;;;;5.13;2.22;;;;;;;;;;6155344;23;20001;-66
2023/10/31 18:14:55;;;;;;;8.73;3.22;;;;;;;;;;6155426;23;20013;-67
2023/10/31 18:17:21;;;;;;;8.18;3.15;;;;;;;;;;6155869;23;20001;-65
2023/10/31 18:19:46;;;;;;;8.73;1.90;;;;;;;;;;6155083;23;20430;-65
2023/10/31 18:22:12;;;;;;;5.07;1.77;;;;;;;;;;6155495;23;20002;-65
2023/10/31 18:24:38;;;;;;;3.90;1.73;;;;;;;;;;6155780;23;20013;-65
2023/10/31 18:27:04;;;;;;;3.10;1.50;;;;;;;;;;6155309;23;20005;-65
2023/10/31 18:29:29;;;;;;;7.93;1.50;;;;;;;;;;6154781;23;20331;-68
2023/10/31 18:31:56;;;;;;;4.63;1.38;;;;;;;;;;6154891;23;20006;-69
2023/10/31 18:34:21;;;;;;;3.40;2.20;;;;;;;;;;6155101;23;20013;-64
2023/10/31 18:36:47;;;;;;;4.40;1.80;;;;;;;;;;6155059;23;20006;-65
2023/10/31 18:39:13;;;;;;;5.15;1.58;;;;;;;;;;6154846;23;20001;-66
2023/10/31 18:41:40;;;;;;;5.30;1.98;;;;;;;;;;6154301;23;20080;-65
2023/10/31 18:44:06;;;;;;;5.10;2.00;;;;;;;;;;6154284;23;20429;-65
2023/10/31 18:46:31;;;;;;;4.63;1.65;;;;;;;;;;6153961;23;20060;-65
2023/10/31 18:48:57;;;;;;;2.95;1.45;;;;;;;;;;6152956;23;20040;-69
2023/10/31 18:51:22;;;;;;;10.32;1.45;;;;;;;;;;6154221;23;20446;-69
2023/10/31 18:53:48;;;;;;;8.98;1.75;;;;;;;;;;6153958;23;20006;-66
2023/10/31 18:56:14;;;;;;;4.18;2.17;;;;;;;;;;6154462;23;20427;-68
2023/10/31 18:58:40;;;;;;;4.97;1.70;;;;;;;;;;6155142;23;20008;-70
2023/10/31 19:01:06;;;;;;;7.63;1.75;;;;;;;;;;6155069;23;20013;-65
2023/10/31 19:03:32;;;;;;;4.28;1.58;;;;;;;;;;6155088;23;20060;-65
2023/10/31 19:05:57;;;;;;;3.60;1.60;;;;;;;;;;6155066;23;20422;-66
2023/10/31 19:08:26;;;;;;;3.47;1.25;;;;;;;;;;6155252;23;20001;-65
2023/10/31 19:10:53;;;;;;;3.55;1.23;;;;;;;;;;6154882;23;20009;-66
2023/10/31 19:13:19;;;;;;;12.10;2.00;;;;;;;;;;6155303;23;20324;-67
2023/10/31 19:15:45;;;;;;;4.97;1.60;;;;;;;;;;6154871;23;20008;-69
2023/10/31 19:18:11;;;;;;;5.43;1.30;;;;;;;;;;6155302;23;20091;-67
2023/10/31 19:20:37;;;;;;;7.07;1.50;;;;;;;;;;6154752;23;20002;-69
2023/10/31 19:23:03;;;;;;;2.53;1.42;;;;;;;;;;6128640;23;20081;-68
2023/10/31 19:25:29;;;;;;;7.18;1.33;;;;;;;;;;6154552;23;20088;-67
2023/10/31 19:27:55;;;;;;;5.43;1.30;;;;;;;;;;6154657;23;20326;-68
2023/10/31 19:30:20;;;;;;;3.95;1.40;;;;;;;;;;6154730;23;20044;-67
2023/10/31 19:32:46;;;;;;;3.83;1.15;;;;;;;;;;6154931;23;19997;-66
2023/10/31 19:35:14;;;;;;;7.10;1.25;;;;;;;;;;6154571;23;20005;-67
2023/10/31 19:37:44;;;;;;;6.05;1.40;;;;;;;;;;6154622;23;20296;-66
2023/10/31 19:40:13;;;;;;;2.60;1.27;;;;;;;;;;6154975;23;20013;-68
2023/10/31 19:42:38;;;;;;;6.33;1.10;;;;;;;;;;6154909;23;20401;-64
2023/10/31 19:45:04;;;;;;;4.65;1.33;;;;;;;;;;6155015;23;20044;-65
2023/10/31 19:47:30;;;;;;;6.72;1.60;;;;;;;;;;6153831;23;20005;-64
2023/10/31 19:49:56;;;;;;;8.25;1.80;;;;;;;;;;6154416;23;20009;-65
2023/10/31 19:52:21;;;;;;;13.25;2.28;;;;;;;;;;6153089;23;20307;-68
2023/10/31 19:54:47;;;;;;;14.60;2.75;;;;;;;;;;6154740;23;20009;-71
2023/10/31 19:57:16;;;;;;;14.60;2.17;;;;;;;;;;6154753;23;20005;-65
2023/10/31 19:59:43;;;;;;;16.85;2.50;;;;;;;;;;6155814;23;20411;-67
2023/10/31 20:02:08;;;;;;;21.27;2.65;;;;;;;;;;6156700;23;20005;-67
2023/10/31 20:04:34;;;;;;;17.73;3.20;;;;;;;;;;6156716;23;20006;-67
2023/10/31 20:07:00;;;;;;;8.40;2.08;;;;;;;;;;6156700;23;20006;-69
2023/10/31 20:09:26;;;;;;;10.98;2.50;;;;;;;;;;6156698;23;20438;-67
2023/10/31 20:11:51;;;;;;;10.45;1.92;;;;;;;;;;6156591;23;20006;-68
2023/10/31 20:14:17;;;;;;;6.18;2.42;;;;;;;;;;6156508;23;20006;-69
2023/10/31 20:16:43;;;;;;;16.88;2.25;;;;;;;;;;6156514;23;20012;-68
2023/10/31 20:19:10;;;;;;;9.65;1.70;;;;;;;;;;6156317;23;20021;-66
2023/10/31 20:21:36;;;;;;;8.80;2.25;;;;;;;;;;6156728;23;20016;-66
2023/10/31 20:24:02;;;;;;;8.20;2.17;;;;;;;;;;6156636;23;20407;-65
2023/10/31 20:26:28;;;;;;;8.88;2.55;;;;;;;;;;6156431;23;20006;-65
2023/10/31 20:28:57;;;;;;;8.13;2.38;;;;;;;;;;6156421;23;20052;-70
2023/10/31 20:31:24;;;;;;;5.03;2.15;;;;;;;;;;6156039;23;20060;-66
2023/10/31 20:33:50;;;;;;;6.07;1.90;;;;;;;;;;6156254;23;20002;-66
2023/10/31 20:36:16;;;;;;;5.03;1.65;;;;;;;;;;6156049;23;20080;-70
2023/10/31 20:38:42;;;;;;;8.90;2.10;;;;;;;;;;6156080;23;20012;-71
2023/10/31 20:41:08;;;;;;;8.10;1.90;;;;;;;;;;6156285;23;20006;-64
2023/10/31 20:43:34;;;;;;;5.80;1.92;;;;;;;;;;6156763;23;20009;-64
2023/10/31 20:45:59;;;;;;;7.55;2.10;;;;;;;;;;6156351;23;20491;-64
2023/10/31 20:48:25;;;;;;;5.30;1.70;;;;;;;;;;6156291;23;20089;-67
2023/10/31 20:50:51;;;;;;;10.88;2.00;;;;;;;;;;6156435;23;20005;-66
2023/10/31 20:53:16;;;;;;;6.30;1.80;;;;;;;;;;6156085;23;20076;-67
2023/10/31 20:55:42;;;;;;;4.68;1.80;;;;;;;;;;6155001;23;20020;-66
2023/10/31 20:58:14;;;;;;;5.18;2.35;;;;;;;;;;6154431;23;20331;-65
2023/10/31 21:00:39;;;;;;;5.30;1.95;;;;;;;;;;6154756;23;20006;-64
2023/10/31 21:03:06;;;;;;;9.57;1.77;;;;;;;;;;6153880;23;20323;-64
2023/10/31 21:05:32;;;;;;;7.70;2.08;;;;;;;;;;6154091;23;20037;-65
2023/10/31 21:07:59;;;;;;;6.15;1.77;;;;;;;;;;6154065;23;20070;-65
2023/10/31 21:10:24;;;;;;;5.50;1.63;;;;;;;;;;6153616;23;20050;-68
2023/10/31 21:12:50;;;;;;;3.85;1.50;;;;;;;;;;6154214;23;20025;-66
2023/10/31 21:15:15;;;;;;;3.67;1.90;;;;;;;;;;6154631;23;20060;-65
2023/10/31 21:17:41;;;;;;;4.63;1.67;;;;;;;;;;6153772;23;20353;-64
2023/10/31 21:20:07;;;;;;;7.65;2.10;;;;;;;;;;6154233;23;20431;-67
2023/10/31 21:22:33;;;;;;;2.30;1.67;;;;;;;;;;6154469;23;20427;-65
2023/10/31 21:24:59;;;;;;;8.02;1.98;;;;;;;;;;6154220;23;20002;-64
2023/10/31 21:27:25;;;;;;;3.60;1.92;;;;;;;;;;6154151;23;20052;-65
2023/10/31 21:29:52;;;;;;;4.60;1.75;;;;;;;;;;6154146;23;20060;-65
2023/10/31 21:32:17;;;;;;;4.40;1.70;;;;;;;;;;6154085;23;20008;-63
2023/10/31 21:34:43;;;;;;;5.35;1.85;;;;;;;;;;6153949;23;19998;-63
2023/10/31 21:37:09;;;;;;;6.88;1.80;;;;;;;;;;6154018;23;20002;-64
2023/10/31 21:39:36;;;;;;;5.82;1.90;;;;;;;;;;6153353;23;20010;-65
2023/10/31 21:42:01;;;;;;;4.30;1.55;;;;;;;;;;6153554;23;20001;-67
2023/10/31 21:44:27;;;;;;;5.20;1.70;;;;;;;;;;6153289;23;20080;-66
2023/10/31 21:46:54;;;;;;;2.70;1.42;;;;;;;;;;6153736;23;20009;-64
2023/10/31 21:49:19;;;;;;;4.95;2.22;;;;;;;;;;6153105;23;20009;-70
2023/10/31 21:51:45;;;;;;;7.03;2.08;;;;;;;;;;6153675;23;20096;-69
2023/10/31 21:54:10;;;;;;;1.63;1.38;;;;;;;;;;6153769;23;20029;-70
2023/10/31 21:56:36;;;;;;;3.35;1.80;;;;;;;;;;6153689;23;20006;-73
2023/10/31 21:59:01;;;;;;;3.65;1.80;;;;;;;;;;6153819;23;20075;-72
2023/10/31 22:01:27;;;;;;;4.95;2.03;;;;;;;;;;6153574;23;20445;-72
2023/10/31 22:03:52;;;;;;;6.55;2.10;;;;;;;;;;6154178;23;20072;-72
2023/10/31 22:06:18;;;;;;;3.67;2.22;;;;;;;;;;6153771;23;20033;-71
2023/10/31 22:08:44;;;;;;;5.35;2.33;;;;;;;;;;6153948;23;20158;-69
2023/10/31 22:11:09;;;;;;;8.43;2.58;;;;;;;;;;6153999;23;20498;-69
2023/10/31 22:13:35;;;;;;;7.18;2.20;;;;;;;;;;6153787;23;20032;-67
2023/10/31 22:16:00;;;;;;;4.65;1.90;;;;;;;;;;6153638;23;20002;-69
2023/10/31 22:18:26;;;;;;;5.55;2.50;;;;;;;;;;6153688;23;20010;-71
2023/10/31 22:20:51;;;;;;;4.07;2.17;;;;;;;;;;6153526;23;20012;-71
2023/10/31 22:23:18;;;;;;;5.25;2.00;;;;;;;;;;6153821;23;20001;-69
2023/10/31 22:25:44;;;;;;;6.25;2.28;;;;;;;;;;6153698;23;20010;-72
2023/10/31 22:28:09;;;;;;;4.40;2.22;;;;;;;;;;6127185;23;20009;-71
2023/10/31 22:30:36;;;;;;;3.88;1.90;;;;;;;;;;6153316;23;20005;-73
2023/10/31 22:33:03;;;;;;;3.35;1.85;;;;;;;;;;6153191;23;20427;-69
2023/10/31 22:35:28;;;;;;;5.47;2.30;;;;;;;;;;6153195;23;20008;-69
2023/10/31 22:37:55;;;;;;;5.40;2.30;;;;;;;;;;6153466;23;20013;-69
2023/10/31 22:40:21;;;;;;;3.60;2.10;;;;;;;;;;6154632;23;20059;-70
2023/10/31 22:42:47;;;;;;;10.55;2.30;;;;;;;;;;6155277;23;20036;-70
2023/10/31 22:45:13;;;;;;;6.65;2.35;;;;;;;;;;6155333;23;20546;-70
2023/10/31 22:47:39;;;;;;;1.90;1.63;;;;;;;;;;6155551;23;20077;-71
2023/10/31 22:50:09;;;;;;;5.28;1.75;;;;;;;;;;6154725;23;20024;-69
2023/10/31 22:52:35;;;;;;;3.05;1.88;;;;;;;;;;6154704;23;20009;-69
2023/10/31 22:55:00;;;;;;;3.40;2.10;;;;;;;;;;6154963;23;19997;-69
2023/10/31 22:57:26;;;;;;;8.05;2.30;;;;;;;;;;6155237;23;20006;-69
2023/10/31 22:59:51;;;;;;;2.95;1.92;;;;;;;;;;6155224;23;20029;-70
2023/10/31 23:02:18;;;;;;;2.00;1.70;;;;;;;;;;6155148;23;20009;-69
2023/10/31 23:04:44;;;;;;;2.97;1.88;;;;;;;;;;6155197;23;20016;-69
2023/10/31 23:07:09;;;;;;;7.35;2.08;;;;;;;;;;6155099;23;20080;-70
2023/10/31 23:09:35;;;;;;;5.45;2.03;;;;;;;;;;6155031;23;20005;-70
2023/10/31 23:12:01;;;;;;;4.18;1.90;;;;;;;;;;6155310;23;20013;-69
2023/10/31 23:14:27;;;;;;;6.10;1.88;;;;;;;;;;6155006;23;20451;-70
2023/10/31 23:16:53;;;;;;;4.28;1.90;;;;;;;;;;6155132;23;19998;-70
2023/10/31 23:19:18;;;;;;;2.55;1.63;;;;;;;;;;6155185;23;20056;-70
2023/10/31 23:21:44;;;;;;;5.25;1.88;;;;;;;;;;6155062;23;20016;-69
2023/10/31 23:24:10;;;;;;;3.38;1.75;;;;;;;;;;6155061;23;20002;-69
2023/10/31 23:26:36;;;;;;;3.63;1.70;;;;;;;;;;6155375;23;20006;-69
2023/10/31 23:29:01;;;;;;;3.85;1.88;;;;;;;;;;6154921;23;20419;-69
2023/10/31 23:31:27;;;;;;;3.55;1.90;;;;;;;;;;6154375;23;20005;-69
2023/10/31 23:33:53;;;;;;;4.88;2.10;;;;;;;;;;6155044;23;20049;-69
2023/10/31 23:36:19;;;;;;;6.10;1.80;;;;;;;;;;6155331;23;20327;-69
2023/10/31 23:38:44;;;;;;;3.80;1.98;;;;;;;;;;6154682;23;20012;-68
2023/10/31 23:41:10;;;;;;;6.78;1.90;;;;;;;;;;6155259;23;20006;-69
2023/10/31 23:43:35;;;;;;;4.22;1.90;;;;;;;;;;6154845;23;20424;-69
2023/10/31 23:46:01;;;;;;;5.03;2.15;;;;;;;;;;6155247;23;19998;-69
2023/10/31 23:48:27;;;;;;;3.63;1.95;;;;;;;;;;6154790;23;20013;-70
2023/10/31 23:50:52;;;;;;;2.92;1.73;;;;;;;;;;6154767;23;20006;-72
2023/10/31 23:53:18;;;;;;;2.50;1.80;;;;;;;;;;6154848;23;20055;-69
2023/10/31 23:55:47;;;;;;;3.25;1.85;;;;;;;;;;6155044;23;20001;-69
2023/10/31 23:58:16;;;;;;;3.33;1.75;;;;;;;;;;6154842;23;20064;-68
